ADDS METAR Data INFO
IDs: Format: Raw Decoded Include TAF

Data at: 1523 UTC 18 Jun 2018

PFKT 181456Z AUTO 02019KT 10SM CLR 08/00 A2967 RMK AO2 SLP048 T00830000 56004
PFKT 181356Z AUTO 02019KT 10SM CLR 08/01 A2968 RMK AO2 SLP050 T00780006
PFKT 181256Z AUTO 02021G25KT 10SM CLR 08/01 A2968 RMK AO2 SLP051 T00830011
PFKT 181156Z AUTO 01016KT 10SM CLR 08/01 A2969 RMK AO2 SLP053 T00830011 10144 20083 58005
PFKT 181056Z AUTO 02018KT 10SM CLR 09/02 A2970 RMK AO2 SLP056 T00890017
PFKT 180956Z AUTO 01015KT 10SM OVC090 09/02 A2970 RMK AO2 SLP057 T00890022
PFKT 180856Z AUTO 02015KT 10SM BKN090 11/02 A2970 RMK AO2 SLP057 T01110022 401720044 53012
PFKT 180756Z AUTO 03018KT 10SM CLR 12/02 A2969 RMK AO2 SLP053 T01170022
PFKT 180656Z AUTO 02018KT 10SM CLR 13/02 A2967 RMK AO2 PK WND 01027/0557 SLP048 T01280022
PFKT 180556Z AUTO 02019G25KT 10SM CLR 14/02 A2967 RMK AO2 SLP046 T01440022 10172 20144 53003
PFKT 180456Z AUTO 04018KT 10SM CLR 16/02 A2966 RMK AO2 SLP043 T01610017
PFKT 180356Z AUTO 04021KT 10SM CLR 16/02 A2965 RMK AO2 SLP041 T01610022
PFKT 180156Z AUTO 36019G23KT 10SM BKN080 17/03 A2965 RMK AO2 SLP041 T01720028
PFKT 180056Z AUTO 02012G18KT 10SM BKN070 16/01 A2966 RMK AO2 SLP042 T01610011
PFKT 172356Z AUTO 04013KT 10SM OVC070 17/02 A2966 RMK AO2 SLP042 T01670022 10167 20094 50001
PFKT 172256Z AUTO 04008KT 10SM OVC065 16/01 A2966 RMK AO2 SLP043 T01560011
PFKT 172156Z AUTO 05013G17KT 10SM FEW070 15/02 A2966 RMK AO2 SLP042 T01500017
PFKT 172056Z AUTO 04017KT 10SM CLR 15/04 A2965 RMK AO2 SLP042 T01500039 58004
PFKT 171956Z AUTO 03015KT 10SM CLR 14/04 A2966 RMK AO2 SLP043 T01390039
PFKT 171856Z AUTO 19003KT 10SM CLR 11/03 A2967 RMK AO2 SLP047 T01060033
PFKT 171756Z AUTO 04010KT 10SM CLR 11/03 A2967 RMK AO2 SLP046 T01060033 10117 20044 56006
PFKT 171656Z AUTO 00000KT 10SM CLR 09/02 A2967 RMK AO2 SLP047 T00940017
PFKT 171556Z AUTO 20006KT 10SM CLR 08/02 A2967 RMK AO2 SLP047 T00780017
PFKT 171456Z AUTO VRB06KT 10SM CLR 06/01 A2969 RMK AO2 SLP052 T00560011 55004
PFKT 171356Z AUTO 01018KT 10SM CLR 04/01 A2968 RMK AO2 SLP051 T00440011
PFKT 171256Z AUTO 02018KT 10SM CLR 04/01 A2969 RMK AO2 SLP053 T00440011
PFKT 171156Z AUTO 01017KT 10SM CLR 04/01 A2970 RMK AO2 SLP056 T00440011 10089 20044 58007
PFKT 171056Z AUTO 01017KT 10SM CLR 05/01 A2971 RMK AO2 SLP060 T00500006
PFKT 170956Z AUTO 03017KT 10SM CLR 05/01 A2972 RMK AO2 SLP063 T00500006
PFKT 170856Z AUTO 03018KT 10SM CLR 06/01 A2972 RMK AO2 SLP064 T00610011 401060022 55005
PFKT 170756Z AUTO 02021G28KT 10SM CLR 07/01 A2972 RMK AO2 PK WND 01028/0747 SLP063 T00720006
PFKT 170656Z AUTO 01020KT 10SM CLR 08/00 A2973 RMK AO2 PK WND 01026/0616 SLP066 T00780000
PFKT 170556Z AUTO 01019G24KT 10SM CLR 08/00 A2973 RMK AO2 SLP068 T00830000 10106 20083 58004
PFKT 170456Z AUTO 03017KT 10SM CLR 09/00 A2974 RMK AO2 PK WND 03027/0405 SLP072 T00940000
PFKT 170356Z AUTO 02019G23KT 10SM CLR 10/00 A2974 RMK AO2 PK WND 03027/0311 SLP072 T01000000